アナディリ の空港の天気 - METARとTAF

アナディリ・ウゴルヌイ空港 ( UHMA / DYR ) - ロシア アナディリ
飛行場実況気象(Metar)
観測時間06/24 20:00 MAGT (06/24 09:00 UTC)
風向・風速南東 3m/s
視程10km以上
天気現象
なし
気温10℃
湿度82%
気圧1022hPa
METARUHMA 240900Z 13003MPS 100V160 CAVOK 10/07 Q1022 R01/////// NOSIG RMK END R01/13002MPS QFE763/1017
過去の天気等 Google飛行場航空写真 Wunderground天気予報

過去48時間のMETAR

飛行場予報(TAF)
発表時間: 6/24 18:46 MAGT (6/24 07:46 UTC)
予報対象時間: 24日20時 MAGT ~ 25日20時 MAGT
風向・風速南南東 3m/s 瞬間風速 8m/s
視程10km以上
全天の8割程度の雲 雲底高度 760m
24日20時 MAGT ~ 25日7時 MAGT に一時的に
風向・風速東 6m/s
視程5000m
天気現象弱いしゅう雨 もや
全天の4割程度の雲 雲底高度 340m
全天の8割程度の積乱雲 雲底高度 520m
25日7時 MAGT ~ 25日8時 MAGT に徐々に
風向・風速東 8m/s 瞬間風速 13m/s
25日8時 MAGT ~ 25日20時 MAGT に一時的に
風向・風速南東 5m/s
TAF UHMA 240746Z 2409/2509 15003G08MPS 9999 BKN025
TEMPO 2409/2420 10006MPS 5000 -SHRA BR SCT011 BKN017CB
BECMG 2420/2421 09008G13MPS
TEMPO 2421/2509 14005MPS